Time;durP1;ratioP1;P1;durP2;ratioP2;P2;SDS_P1;SDS_P2;PMS_P1;PMS_P2;Temp;Humidity;BMP_temperature;BMP_pressure;BME280_temperature;BME280_humidity;BME280_pressure;Samples;Min_cycle;Max_cycle;Signal;HPM_P1;HPM_P2
2022/03/08 00:00:34;;;;;;;;;;;-0.40;70.70;;;;;;5073753;28;20391;-76
2022/03/08 00:03:02;;;;;;;;;;;-0.40;70.90;;;;;;5065120;28;19925;-75
2022/03/08 00:05:28;;;;;;;;;;;-0.50;71.60;;;;;;5069581;28;20010;-77
2022/03/08 00:07:56;;;;;;;;;;;-0.50;71.40;;;;;;5071177;28;20384;-77
2022/03/08 00:10:23;;;;;;;;;;;-0.50;71.50;;;;;;5073004;28;20342;-77
2022/03/08 00:12:50;;;;;;;;;;;-0.50;71.90;;;;;;5077221;28;19933;-75
2022/03/08 00:15:19;;;;;;;;;;;-0.60;71.60;;;;;;5072437;28;19929;-75
2022/03/08 00:17:45;;;;;;;;;;;-0.60;71.50;;;;;;5076461;28;19925;-77
2022/03/08 00:20:12;;;;;;;;;;;-0.60;71.50;;;;;;5072513;28;19924;-75
2022/03/08 00:22:39;;;;;;;;;;;-0.60;71.20;;;;;;5076906;28;19928;-77
2022/03/08 00:25:07;;;;;;;;;;;-0.60;71.40;;;;;;5076715;28;19924;-77
2022/03/08 00:27:34;;;;;;;;;;;-0.60;70.30;;;;;;5075460;28;19932;-76
2022/03/08 00:30:01;;;;;;;;;;;-0.60;69.80;;;;;;5068902;28;19924;-77
2022/03/08 00:32:27;;;;;;;;;;;-0.60;70.50;;;;;;5078589;28;19935;-77
2022/03/08 00:34:54;;;;;;;;;;;-0.60;69.90;;;;;;5074570;28;19952;-75
2022/03/08 00:37:21;;;;;;;;;;;-0.70;69.60;;;;;;5074245;28;19990;-76
2022/03/08 00:39:48;;;;;;;;;;;-0.70;69.30;;;;;;5066888;28;19994;-76
2022/03/08 00:42:15;;;;;;;;;;;-0.70;69.10;;;;;;5072251;28;19977;-77
2022/03/08 00:44:42;;;;;;;;;;;-0.70;70.30;;;;;;5072103;28;19924;-75
2022/03/08 00:47:10;;;;;;;;;;;-0.70;70.70;;;;;;5076543;28;19929;-75
2022/03/08 00:49:37;;;;;;;;;;;-0.60;70.00;;;;;;5075406;28;19982;-76
2022/03/08 00:52:05;;;;;;;;;;;-0.60;70.30;;;;;;5070535;28;19982;-77
2022/03/08 00:54:34;;;;;;;;;;;-0.70;69.60;;;;;;5073773;28;19929;-75
2022/03/08 00:57:00;;;;;;;;;;;-0.70;69.20;;;;;;5073562;28;19924;-76
2022/03/08 00:59:27;;;;;;;;;;;-0.70;69.10;;;;;;5072425;28;20299;-76
2022/03/08 01:01:54;;;;;;;;;;;-0.70;69.90;;;;;;5073546;28;19954;-76
2022/03/08 01:04:21;;;;;;;;;;;-0.70;69.40;;;;;;5073972;28;19924;-75
2022/03/08 01:06:47;;;;;;;;;;;-0.80;70.30;;;;;;5075117;28;19928;-77
2022/03/08 01:09:14;;;;;;;;;;;-0.80;70.50;;;;;;5071910;28;19928;-75
2022/03/08 01:11:42;;;;;;;;;;;-0.80;70.40;;;;;;5066938;28;19967;-77
2022/03/08 01:14:09;;;;;;;;;;;-0.90;70.60;;;;;;5073900;28;19935;-77
2022/03/08 01:16:36;;;;;;;;;;;-0.90;71.10;;;;;;5078946;28;20194;-75
2022/03/08 01:19:04;;;;;;;;;;;-1.00;71.20;;;;;;5074255;28;19975;-77
2022/03/08 01:21:33;;;;;;;;;;;-1.00;71.20;;;;;;5076277;28;19925;-77
2022/03/08 01:24:00;;;;;;;;;;;-1.00;71.30;;;;;;5069509;28;19960;-76
2022/03/08 01:26:27;;;;;;;;;;;-1.00;71.50;;;;;;5075312;28;19928;-75
2022/03/08 01:28:54;;;;;;;;;;;-1.00;71.40;;;;;;5073770;28;20399;-76
2022/03/08 01:31:20;;;;;;;;;;;-1.00;74.20;;;;;;5067104;28;19964;-76
2022/03/08 01:33:49;;;;;;;;;;;-1.00;72.80;;;;;;5072983;28;20069;-75
2022/03/08 01:36:16;;;;;;;;;;;-1.10;72.80;;;;;;5072168;28;20312;-78
2022/03/08 01:38:43;;;;;;;;;;;-1.10;72.70;;;;;;5067690;28;19963;-77
2022/03/08 01:41:10;;;;;;;;;;;-1.00;72.90;;;;;;5072528;28;20303;-75
2022/03/08 01:43:37;;;;;;;;;;;-1.10;73.10;;;;;;5075589;28;19967;-76
2022/03/08 01:46:04;;;;;;;;;;;-1.10;73.00;;;;;;5071464;28;20457;-75
2022/03/08 01:48:31;;;;;;;;;;;-1.20;73.00;;;;;;5068739;28;19936;-76
2022/03/08 01:50:58;;;;;;;;;;;-1.20;73.20;;;;;;5073703;28;19925;-77
2022/03/08 01:53:25;;;;;;;;;;;-1.20;73.40;;;;;;5068004;28;19959;-76
2022/03/08 01:55:52;;;;;;;;;;;-1.30;74.40;;;;;;5084438;28;19978;-75
2022/03/08 01:58:23;;;;;;;;;;;-1.30;74.70;;;;;;5072869;28;19950;-76
2022/03/08 02:00:50;;;;;;;;;;;-1.20;74.10;;;;;;5071544;28;19994;-75
2022/03/08 02:03:17;;;;;;;;;;;-1.30;73.70;;;;;;5077026;28;19928;-77
2022/03/08 02:05:44;;;;;;;;;;;-1.30;73.50;;;;;;5069894;28;19960;-77
2022/03/08 02:08:12;;;;;;;;;;;-1.30;75.30;;;;;;5064949;28;19924;-76
2022/03/08 02:10:39;;;;;;;;;;;-1.40;76.10;;;;;;5066460;28;20399;-77
2022/03/08 02:13:06;;;;;;;;;;;-1.50;74.80;;;;;;5079233;28;19928;-75
2022/03/08 02:15:32;;;;;;;;;;;-1.50;76.20;;;;;;5071158;28;19924;-76
2022/03/08 02:18:00;;;;;;;;;;;-1.60;77.40;;;;;;5076265;28;19928;-77
2022/03/08 02:20:27;;;;;;;;;;;-1.60;76.90;;;;;;5053078;28;19925;-75
2022/03/08 02:22:54;;;;;;;;;;;-1.60;78.60;;;;;;5076982;28;19928;-77
2022/03/08 02:25:21;;;;;;;;;;;-1.60;79.50;;;;;;5066123;28;19970;-77
2022/03/08 02:27:50;;;;;;;;;;;-1.50;78.30;;;;;;5073439;28;19929;-75
2022/03/08 02:30:17;;;;;;;;;;;-1.50;78.50;;;;;;5073622;28;19982;-75
2022/03/08 02:32:44;;;;;;;;;;;-1.40;77.60;;;;;;5067603;28;19971;-77
2022/03/08 02:35:13;;;;;;;;;;;-1.30;78.20;;;;;;5068707;28;20017;-77
2022/03/08 02:37:41;;;;;;;;;;;-1.30;77.60;;;;;;5072776;28;19928;-77
2022/03/08 02:40:09;;;;;;;;;;;-1.20;76.90;;;;;;5070284;28;19974;-77
2022/03/08 02:42:35;;;;;;;;;;;-1.00;77.30;;;;;;5062604;28;19960;-75
2022/03/08 02:45:03;;;;;;;;;;;-0.90;77.10;;;;;;5081101;28;19924;-76
2022/03/08 02:47:30;;;;;;;;;;;-0.80;76.50;;;;;;5071862;28;19955;-75
2022/03/08 02:49:56;;;;;;;;;;;-0.60;75.90;;;;;;5075439;28;19928;-75
2022/03/08 02:52:23;;;;;;;;;;;-0.50;75.10;;;;;;5078860;28;19924;-76
2022/03/08 02:54:50;;;;;;;;;;;-0.40;74.60;;;;;;5064965;28;19925;-77
2022/03/08 02:57:18;;;;;;;;;;;-0.40;74.40;;;;;;5067020;28;19925;-77
2022/03/08 02:59:45;;;;;;;;;;;-0.30;74.00;;;;;;5083608;28;20458;-77
2022/03/08 03:02:11;;;;;;;;;;;-0.10;73.20;;;;;;5067075;28;19925;-75
2022/03/08 03:04:38;;;;;;;;;;;0.00;72.90;;;;;;5075780;28;19932;-76
2022/03/08 03:07:05;;;;;;;;;;;0.50;71.90;;;;;;5075593;28;20356;-76
2022/03/08 03:09:32;;;;;;;;;;;0.70;70.80;;;;;;5072001;28;19974;-75
2022/03/08 03:11:59;;;;;;;;;;;0.80;70.40;;;;;;5078172;28;19929;-76
2022/03/08 03:14:25;;;;;;;;;;;1.10;69.10;;;;;;5060413;28;19951;-76
2022/03/08 03:16:52;;;;;;;;;;;1.50;68.10;;;;;;5072313;28;19924;-75
2022/03/08 03:19:19;;;;;;;;;;;1.60;67.40;;;;;;5081958;28;19925;-75
2022/03/08 03:21:45;;;;;;;;;;;1.70;67.10;;;;;;5077898;28;20334;-75
2022/03/08 03:24:12;;;;;;;;;;;2.10;65.70;;;;;;5078785;28;19928;-75
2022/03/08 03:26:39;;;;;;;;;;;2.60;63.60;;;;;;5076808;28;19932;-75
2022/03/08 03:29:06;;;;;;;;;;;2.50;64.40;;;;;;5077618;28;19932;-77
2022/03/08 03:31:32;;;;;;;;;;;2.30;64.60;;;;;;5070509;28;19924;-76
2022/03/08 03:33:59;;;;;;;;;;;2.10;65.30;;;;;;5069626;28;19928;-77
2022/03/08 03:36:26;;;;;;;;;;;2.20;64.90;;;;;;5073265;28;19925;-76
2022/03/08 03:38:53;;;;;;;;;;;2.70;62.50;;;;;;5073359;28;19924;-76
2022/03/08 03:41:20;;;;;;;;;;;2.90;62.20;;;;;;5078896;28;19947;-76
2022/03/08 03:43:46;;;;;;;;;;;3.10;61.70;;;;;;5076315;28;19998;-76
2022/03/08 03:46:13;;;;;;;;;;;3.10;62.10;;;;;;5072058;28;19925;-76
2022/03/08 03:48:40;;;;;;;;;;;3.00;62.80;;;;;;5073601;28;19925;-77
2022/03/08 03:51:07;;;;;;;;;;;2.70;63.60;;;;;;5069732;28;19978;-77
2022/03/08 03:53:34;;;;;;;;;;;2.50;64.20;;;;;;5080942;28;20312;-77
2022/03/08 03:56:00;;;;;;;;;;;2.30;65.10;;;;;;5066393;28;20362;-76
2022/03/08 03:58:28;;;;;;;;;;;2.20;65.20;;;;;;5077157;28;20404;-75
2022/03/08 04:00:55;;;;;;;;;;;2.10;65.60;;;;;;5069980;28;20010;-76
2022/03/08 04:03:23;;;;;;;;;;;2.00;65.90;;;;;;5070988;28;20020;-74
2022/03/08 04:05:50;;;;;;;;;;;1.90;65.90;;;;;;5074491;28;20396;-74
2022/03/08 04:08:20;;;;;;;;;;;1.90;66.00;;;;;;5074844;28;20073;-74
2022/03/08 04:10:50;;;;;;;;;;;1.90;66.30;;;;;;5071153;28;19931;-75
2022/03/08 04:13:17;;;;;;;;;;;1.90;67.20;;;;;;5089928;28;19932;-75
2022/03/08 04:15:45;;;;;;;;;;;1.80;66.90;;;;;;5071757;28;19935;-75
2022/03/08 04:18:12;;;;;;;;;;;1.80;67.30;;;;;;5069942;28;19959;-74
2022/03/08 04:20:39;;;;;;;;;;;1.80;67.20;;;;;;5071344;28;19960;-74
2022/03/08 04:23:05;;;;;;;;;;;1.80;67.70;;;;;;5070514;28;20381;-74
2022/03/08 04:25:32;;;;;;;;;;;1.70;68.20;;;;;;5072448;28;19935;-74
2022/03/08 04:27:59;;;;;;;;;;;1.70;68.50;;;;;;5068726;28;20396;-74
2022/03/08 04:30:25;;;;;;;;;;;1.60;68.60;;;;;;5072201;28;20302;-74
2022/03/08 04:32:52;;;;;;;;;;;1.60;68.70;;;;;;5071303;28;20533;-74
2022/03/08 04:35:19;;;;;;;;;;;1.60;68.80;;;;;;5063850;28;19932;-74
2022/03/08 04:37:46;;;;;;;;;;;1.60;68.70;;;;;;5065823;28;19974;-75
2022/03/08 04:40:13;;;;;;;;;;;1.70;68.60;;;;;;5072920;28;19924;-74
2022/03/08 04:42:40;;;;;;;;;;;1.60;69.10;;;;;;5066201;28;20015;-74
2022/03/08 04:45:07;;;;;;;;;;;1.80;68.20;;;;;;5072228;28;19931;-74
2022/03/08 04:47:35;;;;;;;;;;;2.00;67.20;;;;;;5072001;28;19959;-74
2022/03/08 04:50:07;;;;;;;;;;;2.10;66.70;;;;;;5072214;28;19973;-75
2022/03/08 04:52:34;;;;;;;;;;;2.20;66.60;;;;;;5073115;28;19929;-75
2022/03/08 04:55:01;;;;;;;;;;;2.30;66.10;;;;;;5070545;28;19978;-75
2022/03/08 04:57:27;;;;;;;;;;;2.30;66.00;;;;;;5064311;28;19947;-76
2022/03/08 04:59:54;;;;;;;;;;;2.30;66.10;;;;;;5070183;28;19928;-74
2022/03/08 05:02:21;;;;;;;;;;;2.40;65.90;;;;;;5067079;28;20015;-75
2022/03/08 05:04:48;;;;;;;;;;;2.40;65.90;;;;;;5063930;28;20438;-74
2022/03/08 05:07:14;;;;;;;;;;;2.50;66.00;;;;;;5069681;28;19933;-74
2022/03/08 05:09:41;;;;;;;;;;;2.50;66.20;;;;;;5072325;28;19924;-74
2022/03/08 05:12:08;;;;;;;;;;;2.50;66.50;;;;;;5071172;28;19974;-75
2022/03/08 05:14:35;;;;;;;;;;;2.40;66.20;;;;;;5069657;28;19928;-75
2022/03/08 05:17:02;;;;;;;;;;;2.40;66.50;;;;;;5068299;28;20288;-76
2022/03/08 05:19:29;;;;;;;;;;;2.40;67.20;;;;;;5071542;28;19935;-75
2022/03/08 05:21:56;;;;;;;;;;;2.40;68.10;;;;;;5070696;28;20348;-74
2022/03/08 05:24:23;;;;;;;;;;;2.40;67.90;;;;;;5073205;28;20449;-74
2022/03/08 05:26:49;;;;;;;;;;;2.40;67.70;;;;;;5055868;28;20368;-74
2022/03/08 05:29:16;;;;;;;;;;;2.30;68.20;;;;;;5069836;28;20453;-74
2022/03/08 05:31:43;;;;;;;;;;;2.30;68.00;;;;;;5069072;28;20281;-74
2022/03/08 05:34:10;;;;;;;;;;;2.30;67.60;;;;;;5069620;28;19928;-76
2022/03/08 05:36:38;;;;;;;;;;;2.30;67.90;;;;;;5071119;28;19950;-76
2022/03/08 05:39:04;;;;;;;;;;;2.40;67.90;;;;;;5062487;28;20396;-77
2022/03/08 05:41:31;;;;;;;;;;;2.40;67.60;;;;;;5082063;28;19924;-75
2022/03/08 05:43:58;;;;;;;;;;;2.40;67.40;;;;;;5072407;28;19931;-75
2022/03/08 05:46:25;;;;;;;;;;;2.40;67.10;;;;;;5074249;28;20423;-74
2022/03/08 05:48:52;;;;;;;;;;;2.50;66.70;;;;;;5061756;28;20385;-74
2022/03/08 05:51:19;;;;;;;;;;;2.50;66.60;;;;;;5071714;28;20430;-74
2022/03/08 05:53:45;;;;;;;;;;;2.50;66.20;;;;;;5068454;28;20316;-75
2022/03/08 05:56:12;;;;;;;;;;;2.60;65.60;;;;;;5067145;28;19924;-76
2022/03/08 05:58:39;;;;;;;;;;;2.70;65.00;;;;;;5069534;28;19926;-74
2022/03/08 06:01:05;;;;;;;;;;;2.70;64.40;;;;;;5065969;28;19928;-74
2022/03/08 06:03:32;;;;;;;;;;;2.80;63.90;;;;;;5070180;28;20314;-74
2022/03/08 06:05:59;;;;;;;;;;;2.80;64.10;;;;;;5067923;28;19933;-74
2022/03/08 06:08:26;;;;;;;;;;;2.80;64.10;;;;;;5068551;28;19924;-73
2022/03/08 06:10:53;;;;;;;;;;;2.80;64.40;;;;;;5068418;28;19928;-77
2022/03/08 06:13:20;;;;;;;;;;;2.80;64.60;;;;;;5075041;28;19925;-77
2022/03/08 06:15:47;;;;;;;;;;;2.80;64.40;;;;;;5071679;28;20404;-77
2022/03/08 06:18:14;;;;;;;;;;;2.80;64.80;;;;;;5076593;28;19928;-76
2022/03/08 06:20:40;;;;;;;;;;;2.80;64.60;;;;;;5079762;28;19982;-76
2022/03/08 06:23:07;;;;;;;;;;;2.90;64.70;;;;;;5066331;28;19956;-77
2022/03/08 06:25:34;;;;;;;;;;;2.90;64.50;;;;;;5069485;28;19929;-76
2022/03/08 06:28:01;;;;;;;;;;;2.90;64.70;;;;;;5069365;28;19924;-76
2022/03/08 06:30:27;;;;;;;;;;;2.80;64.90;;;;;;5056766;28;19970;-76
2022/03/08 06:32:54;;;;;;;;;;;2.80;64.60;;;;;;5068999;28;19929;-76
2022/03/08 06:35:21;;;;;;;;;;;2.90;64.70;;;;;;5075589;28;19924;-78
2022/03/08 06:37:48;;;;;;;;;;;2.80;65.30;;;;;;5064382;28;19963;-77
2022/03/08 06:40:14;;;;;;;;;;;2.80;65.50;;;;;;5065208;28;19981;-76
2022/03/08 06:42:41;;;;;;;;;;;2.80;66.20;;;;;;5071855;28;19929;-77
2022/03/08 06:45:09;;;;;;;;;;;2.80;66.40;;;;;;5073080;28;19990;-78
2022/03/08 06:47:36;;;;;;;;;;;2.80;66.60;;;;;;5070413;28;19924;-77
2022/03/08 06:50:03;;;;;;;;;;;2.70;66.70;;;;;;5063688;28;19971;-78
2022/03/08 06:52:30;;;;;;;;;;;2.70;66.40;;;;;;5078291;28;20392;-76
2022/03/08 06:54:56;;;;;;;;;;;2.80;66.20;;;;;;5073015;28;19929;-77
2022/03/08 06:57:24;;;;;;;;;;;2.80;66.20;;;;;;5077812;28;19936;-77
2022/03/08 06:59:51;;;;;;;;;;;2.80;65.70;;;;;;5064419;28;19974;-77
2022/03/08 07:02:18;;;;;;;;;;;2.80;66.50;;;;;;5078056;28;19925;-78
2022/03/08 07:04:45;;;;;;;;;;;2.80;65.40;;;;;;5072243;28;20011;-78
2022/03/08 07:07:11;;;;;;;;;;;2.90;65.30;;;;;;5076326;28;20456;-76
2022/03/08 07:09:38;;;;;;;;;;;2.90;65.20;;;;;;5074527;28;19932;-76
2022/03/08 07:12:05;;;;;;;;;;;3.00;65.00;;;;;;5071335;28;20339;-77
2022/03/08 07:14:33;;;;;;;;;;;3.00;64.80;;;;;;5079598;28;19924;-76
2022/03/08 07:17:00;;;;;;;;;;;3.00;64.70;;;;;;5072589;28;19932;-76
2022/03/08 07:19:27;;;;;;;;;;;3.10;65.00;;;;;;5065450;28;19924;-75
2022/03/08 07:21:53;;;;;;;;;;;3.10;64.40;;;;;;5075251;28;20621;-76
2022/03/08 07:24:20;;;;;;;;;;;3.20;64.20;;;;;;5067985;28;19928;-75
2022/03/08 07:26:47;;;;;;;;;;;3.20;64.20;;;;;;5070711;28;19991;-77
2022/03/08 07:29:14;;;;;;;;;;;3.30;64.00;;;;;;5077521;28;20084;-78
2022/03/08 07:31:40;;;;;;;;;;;3.30;64.20;;;;;;5080681;28;19978;-76
2022/03/08 07:34:07;;;;;;;;;;;3.30;63.90;;;;;;5079544;28;19957;-75
2022/03/08 07:36:34;;;;;;;;;;;3.40;64.20;;;;;;5071710;28;20485;-78
2022/03/08 07:39:01;;;;;;;;;;;3.40;63.90;;;;;;5073938;28;19928;-75
2022/03/08 07:41:28;;;;;;;;;;;3.50;63.70;;;;;;5073560;28;19925;-76
2022/03/08 07:43:54;;;;;;;;;;;3.50;63.60;;;;;;5077180;28;20015;-78
2022/03/08 07:46:21;;;;;;;;;;;3.60;63.70;;;;;;5069643;28;19925;-78
2022/03/08 07:48:48;;;;;;;;;;;3.60;63.10;;;;;;5075586;28;19929;-78
2022/03/08 07:51:35;;;;;;;;;;;3.60;62.90;;;;;;5072098;28;20008;-76
2022/03/08 07:54:02;;;;;;;;;;;3.70;63.00;;;;;;5076843;28;19966;-76
2022/03/08 07:56:28;;;;;;;;;;;3.70;62.50;;;;;;5078051;28;20446;-78
2022/03/08 07:58:56;;;;;;;;;;;3.70;62.30;;;;;;5081068;28;19956;-78
2022/03/08 08:01:22;;;;;;;;;;;3.70;62.80;;;;;;5084172;28;19925;-76
2022/03/08 08:03:49;;;;;;;;;;;3.80;62.90;;;;;;5073306;28;20319;-74
2022/03/08 08:06:19;;;;;;;;;;;3.80;63.10;;;;;;5072656;28;20024;-78
2022/03/08 08:08:45;;;;;;;;;;;3.80;64.10;;;;;;5071816;28;19924;-78
2022/03/08 08:11:12;;;;;;;;;;;3.80;63.30;;;;;;5072819;28;19925;-78
2022/03/08 08:13:39;;;;;;;;;;;3.80;62.80;;;;;;5071302;28;19974;-78
2022/03/08 08:16:06;;;;;;;;;;;3.90;62.90;;;;;;5075938;28;19925;-76
2022/03/08 08:18:33;;;;;;;;;;;3.90;62.50;;;;;;5075008;28;19924;-78
2022/03/08 08:21:01;;;;;;;;;;;3.90;62.60;;;;;;5076702;28;19974;-78
2022/03/08 08:23:29;;;;;;;;;;;4.00;62.80;;;;;;5076467;28;20392;-77
2022/03/08 08:25:56;;;;;;;;;;;4.00;62.90;;;;;;5075796;28;19931;-78
2022/03/08 08:28:22;;;;;;;;;;;4.00;63.60;;;;;;5078464;28;19925;-78
2022/03/08 08:30:49;;;;;;;;;;;4.10;63.40;;;;;;5079280;28;20346;-75
2022/03/08 08:33:16;;;;;;;;;;;4.10;64.00;;;;;;5073154;28;20380;-78
2022/03/08 08:35:43;;;;;;;;;;;4.20;64.20;;;;;;5074919;28;20437;-76
2022/03/08 08:38:09;;;;;;;;;;;4.20;64.00;;;;;;5075970;28;19929;-78
2022/03/08 08:40:36;;;;;;;;;;;4.20;64.20;;;;;;5081962;28;19928;-78
2022/03/08 08:43:05;;;;;;;;;;;4.30;63.90;;;;;;5065066;28;20404;-76
2022/03/08 08:45:33;;;;;;;;;;;4.30;63.00;;;;;;5071297;28;19935;-75
2022/03/08 08:47:59;;;;;;;;;;;4.30;62.90;;;;;;5064499;28;19928;-77
2022/03/08 08:50:26;;;;;;;;;;;4.30;63.20;;;;;;5065039;28;19929;-79
2022/03/08 08:52:54;;;;;;;;;;;4.40;63.10;;;;;;5071422;28;19924;-76
2022/03/08 08:55:21;;;;;;;;;;;4.50;63.10;;;;;;5076328;28;19978;-78
2022/03/08 08:57:48;;;;;;;;;;;4.50;63.00;;;;;;5069090;28;20346;-77
2022/03/08 09:00:15;;;;;;;;;;;4.60;62.50;;;;;;5080725;28;19993;-78
2022/03/08 09:02:43;;;;;;;;;;;4.60;62.30;;;;;;5077196;28;19928;-79
2022/03/08 09:05:12;;;;;;;;;;;4.70;61.60;;;;;;5081340;28;19935;-78
2022/03/08 09:07:39;;;;;;;;;;;4.80;62.00;;;;;;5078209;28;19974;-77
2022/03/08 09:10:06;;;;;;;;;;;4.80;61.60;;;;;;5079450;28;19951;-77
2022/03/08 09:12:33;;;;;;;;;;;4.90;60.80;;;;;;5074313;28;19947;-76
2022/03/08 09:15:01;;;;;;;;;;;4.90;60.10;;;;;;5065863;28;19928;-79
2022/03/08 09:17:29;;;;;;;;;;;5.00;60.10;;;;;;5073837;28;19924;-76
2022/03/08 09:19:55;;;;;;;;;;;5.00;59.40;;;;;;5064649;28;19928;-79
2022/03/08 09:22:23;;;;;;;;;;;5.00;59.10;;;;;;5072490;28;19982;-77
2022/03/08 09:24:50;;;;;;;;;;;5.10;59.80;;;;;;5064444;28;19982;-79
2022/03/08 09:27:17;;;;;;;;;;;5.10;60.30;;;;;;5090955;28;20277;-77
2022/03/08 09:29:46;;;;;;;;;;;5.10;60.00;;;;;;5080325;28;19963;-77
2022/03/08 09:32:12;;;;;;;;;;;5.20;59.90;;;;;;5076088;28;19925;-76
2022/03/08 09:34:39;;;;;;;;;;;5.30;59.50;;;;;;5075087;28;19955;-77
2022/03/08 09:37:07;;;;;;;;;;;5.30;59.40;;;;;;5073564;28;20400;-77
2022/03/08 09:39:36;;;;;;;;;;;5.40;59.40;;;;;;5072849;28;20442;-76
2022/03/08 09:42:03;;;;;;;;;;;5.50;59.80;;;;;;5065699;28;19971;-78
2022/03/08 09:44:32;;;;;;;;;;;5.50;58.20;;;;;;5073882;28;19936;-78
2022/03/08 09:46:59;;;;;;;;;;;5.50;58.10;;;;;;5063130;28;19932;-78
2022/03/08 09:49:27;;;;;;;;;;;5.50;59.00;;;;;;5069154;28;20381;-76
2022/03/08 09:51:54;;;;;;;;;;;5.70;59.40;;;;;;5074277;28;19950;-78
2022/03/08 09:54:21;;;;;;;;;;;5.70;58.60;;;;;;5075779;28;19925;-76
2022/03/08 09:56:48;;;;;;;;;;;5.70;58.20;;;;;;5087121;28;19908;-76
2022/03/08 09:59:15;;;;;;;;;;;5.70;57.70;;;;;;5070128;28;20058;-78
2022/03/08 10:01:43;;;;;;;;;;;5.80;58.00;;;;;;5068799;28;19929;-78
2022/03/08 10:04:10;;;;;;;;;;;5.70;57.70;;;;;;5078759;28;19928;-77
2022/03/08 10:06:57;;;;;;;;;;;5.80;58.30;;;;;;5068477;28;19994;-76
2022/03/08 10:09:25;;;;;;;;;;;5.80;57.90;;;;;;5075291;28;19947;-76
2022/03/08 10:11:53;;;;;;;;;;;5.90;58.20;;;;;;5082495;28;20304;-77
2022/03/08 10:14:27;;;;;;;;;;;6.00;58.60;;;;;;5074357;28;19928;-75
2022/03/08 10:16:54;;;;;;;;;;;6.10;57.30;;;;;;5058239;28;19925;-77
2022/03/08 10:19:21;;;;;;;;;;;6.10;57.50;;;;;;5083997;28;19925;-78
2022/03/08 10:21:51;;;;;;;;;;;6.20;58.00;;;;;;5067257;28;19932;-79
2022/03/08 10:24:23;;;;;;;;;;;6.20;57.80;;;;;;5069478;28;19932;-76
2022/03/08 10:26:57;;;;;;;;;;;6.30;56.90;;;;;;5087187;28;20568;-78
2022/03/08 10:29:36;;;;;;;;;;;6.30;55.80;;;;;;5075460;28;19974;-78
2022/03/08 10:32:16;;;;;;;;;;;6.40;56.50;;;;;;5071725;28;20030;-77
2022/03/08 10:34:45;;;;;;;;;;;6.40;56.40;;;;;;5072204;28;19947;-76
2022/03/08 10:37:15;;;;;;;;;;;6.50;56.70;;;;;;5081127;28;19928;-77
2022/03/08 10:39:53;;;;;;;;;;;6.50;56.00;;;;;;5065941;28;19928;-77
2022/03/08 10:42:21;;;;;;;;;;;6.50;56.00;;;;;;5081343;28;19928;-77
2022/03/08 10:44:48;;;;;;;;;;;6.70;56.80;;;;;;5070487;28;19931;-76
2022/03/08 10:47:15;;;;;;;;;;;6.60;55.90;;;;;;5074217;28;19960;-75
2022/03/08 10:49:55;;;;;;;;;;;6.70;55.60;;;;;;5073476;28;19978;-75
2022/03/08 10:52:32;;;;;;;;;;;6.80;55.80;;;;;;5066520;28;19978;-78
2022/03/08 10:55:16;;;;;;;;;;;6.90;55.20;;;;;;5068608;28;20294;-78
2022/03/08 10:57:44;;;;;;;;;;;6.90;55.10;;;;;;5068668;28;19932;-78
2022/03/08 11:00:17;;;;;;;;;;;6.90;54.70;;;;;;5073693;28;19928;-77
2022/03/08 11:02:53;;;;;;;;;;;6.90;54.60;;;;;;5073162;28;19924;-77
2022/03/08 11:05:22;;;;;;;;;;;7.00;54.60;;;;;;5078156;28;19931;-78
2022/03/08 11:07:50;;;;;;;;;;;6.90;53.90;;;;;;5077765;28;19928;-76
2022/03/08 11:10:20;;;;;;;;;;;6.90;54.30;;;;;;5077721;28;20446;-78
2022/03/08 11:12:47;;;;;;;;;;;6.90;54.00;;;;;;5078612;28;20346;-78
2022/03/08 11:15:16;;;;;;;;;;;7.00;54.70;;;;;;5076118;28;19932;-76
2022/03/08 11:17:44;;;;;;;;;;;7.20;54.60;;;;;;5071910;28;20338;-77
2022/03/08 11:20:11;;;;;;;;;;;7.20;54.40;;;;;;5074773;28;19928;-75
2022/03/08 11:22:39;;;;;;;;;;;7.20;52.70;;;;;;5076232;28;19986;-78
2022/03/08 11:25:08;;;;;;;;;;;7.10;53.10;;;;;;5069448;28;19936;-77
2022/03/08 11:27:55;;;;;;;;;;;7.00;52.70;;;;;;5076736;28;19966;-76
2022/03/08 11:30:27;;;;;;;;;;;7.10;52.80;;;;;;5071783;28;19928;-76
2022/03/08 11:32:53;;;;;;;;;;;7.10;53.00;;;;;;5077139;28;19974;-78
2022/03/08 11:35:28;;;;;;;;;;;7.10;53.30;;;;;;5083334;28;20367;-76
2022/03/08 11:37:56;;;;;;;;;;;7.10;52.50;;;;;;5067560;28;19928;-78
2022/03/08 11:40:23;;;;;;;;;;;7.10;53.10;;;;;;5083764;28;19928;-75
2022/03/08 11:42:52;;;;;;;;;;;7.10;52.00;;;;;;5069271;28;19928;-76
2022/03/08 11:45:23;;;;;;;;;;;7.10;51.80;;;;;;5070892;28;19971;-78
2022/03/08 11:47:57;;;;;;;;;;;7.00;51.50;;;;;;5070225;28;20319;-77
2022/03/08 11:50:32;;;;;;;;;;;7.00;51.90;;;;;;5087013;28;19929;-78
2022/03/08 11:53:08;;;;;;;;;;;7.20;52.90;;;;;;5078673;28;19924;-76
2022/03/08 11:55:36;;;;;;;;;;;7.40;52.60;;;;;;5075588;28;19924;-76
2022/03/08 11:58:04;;;;;;;;;;;7.30;50.70;;;;;;5081685;28;19978;-75
2022/03/08 12:00:33;;;;;;;;;;;7.40;51.50;;;;;;5077847;28;19928;-77
2022/03/08 12:03:02;;;;;;;;;;;7.40;50.80;;;;;;5076474;28;19928;-76
2022/03/08 12:05:38;;;;;;;;;;;7.40;51.00;;;;;;5071026;28;19929;-78
2022/03/08 12:08:23;;;;;;;;;;;7.50;51.60;;;;;;5072256;28;20402;-77
2022/03/08 12:10:58;;;;;;;;;;;7.60;50.90;;;;;;5061667;28;20355;-75
2022/03/08 12:13:38;;;;;;;;;;;7.80;51.40;;;;;;5069338;28;19932;-77
2022/03/08 12:16:10;;;;;;;;;;;8.10;51.60;;;;;;5068390;28;19932;-78
2022/03/08 12:18:42;;;;;;;;;;;8.40;51.00;;;;;;5077678;28;19924;-78
2022/03/08 12:21:14;;;;;;;;;;;8.60;50.50;;;;;;5069551;28;19925;-78
2022/03/08 12:23:48;;;;;;;;;;;8.50;48.50;;;;;;5074553;28;20392;-78
2022/03/08 12:26:29;;;;;;;;;;;8.50;49.30;;;;;;5072873;28;20565;-77
2022/03/08 12:29:16;;;;;;;;;;;8.50;49.20;;;;;;5061485;28;19935;-78
2022/03/08 12:31:56;;;;;;;;;;;8.20;49.30;;;;;;5065515;28;20426;-78
2022/03/08 12:34:46;;;;;;;;;;;8.10;49.20;;;;;;5072148;28;19978;-78
2022/03/08 12:37:41;;;;;;;;;;;8.00;49.10;;;;;;5066269;28;19971;-77
2022/03/08 12:40:19;;;;;;;;;;;8.00;49.80;;;;;;5068912;28;19925;-78
2022/03/08 12:42:58;;;;;;;;;;;7.90;50.10;;;;;;5065854;28;19979;-78
2022/03/08 12:45:26;;;;;;;;;;;8.00;49.30;;;;;;5076931;28;19929;-76
2022/03/08 12:47:55;;;;;;;;;;;8.00;49.40;;;;;;5065963;28;19932;-75
2022/03/08 12:50:23;;;;;;;;;;;8.00;49.90;;;;;;5070302;28;19925;-78
2022/03/08 12:52:51;;;;;;;;;;;8.20;50.10;;;;;;5060088;28;19928;-78
2022/03/08 12:55:19;;;;;;;;;;;8.10;48.90;;;;;;5064046;28;19928;-77
2022/03/08 12:57:48;;;;;;;;;;;8.10;49.20;;;;;;5066763;28;20350;-78
2022/03/08 13:00:32;;;;;;;;;;;8.10;49.60;;;;;;5065825;28;19939;-74
2022/03/08 13:02:59;;;;;;;;;;;8.10;49.20;;;;;;5064270;28;19924;-78
2022/03/08 13:05:28;;;;;;;;;;;8.00;49.00;;;;;;5061531;28;19990;-78
2022/03/08 13:07:55;;;;;;;;;;;8.00;49.60;;;;;;5067008;28;19929;-78
2022/03/08 13:10:23;;;;;;;;;;;7.90;49.30;;;;;;5063717;28;19934;-78
2022/03/08 13:12:52;;;;;;;;;;;7.90;49.70;;;;;;5069168;28;20076;-76
2022/03/08 13:15:22;;;;;;;;;;;7.80;49.00;;;;;;5065849;28;19932;-78
2022/03/08 13:17:50;;;;;;;;;;;7.80;49.50;;;;;;5065026;28;20383;-78
2022/03/08 13:20:23;;;;;;;;;;;7.80;49.70;;;;;;5067543;28;20430;-79
2022/03/08 13:22:50;;;;;;;;;;;7.70;49.60;;;;;;5065680;28;19929;-77
2022/03/08 13:25:19;;;;;;;;;;;7.60;49.40;;;;;;5066057;28;20281;-78
2022/03/08 13:28:03;;;;;;;;;;;7.70;50.10;;;;;;5066322;28;19947;-77
2022/03/08 13:30:32;;;;;;;;;;;7.70;49.70;;;;;;5067841;28;19932;-78
2022/03/08 13:33:17;;;;;;;;;;;7.80;49.50;;;;;;5068233;28;19928;-76
2022/03/08 13:35:47;;;;;;;;;;;7.90;48.80;;;;;;5060410;28;20453;-78
2022/03/08 13:38:15;;;;;;;;;;;7.90;48.80;;;;;;5061161;28;19932;-78
2022/03/08 13:40:43;;;;;;;;;;;8.00;48.50;;;;;;5060795;28;19932;-80
2022/03/08 13:43:10;;;;;;;;;;;8.00;48.90;;;;;;5066744;28;20408;-75
2022/03/08 13:46:02;;;;;;;;;;;7.90;48.20;;;;;;5066775;28;19932;-78
2022/03/08 13:48:31;;;;;;;;;;;8.00;48.80;;;;;;5060540;28;20438;-78
2022/03/08 13:51:02;;;;;;;;;;;8.00;49.30;;;;;;5068843;28;19928;-78
2022/03/08 13:53:30;;;;;;;;;;;8.00;48.90;;;;;;5066081;28;19928;-76
2022/03/08 13:55:57;;;;;;;;;;;8.10;48.70;;;;;;5066749;28;20163;-75
2022/03/08 13:58:25;;;;;;;;;;;8.20;48.80;;;;;;5068443;28;19924;-76
2022/03/08 14:00:53;;;;;;;;;;;8.30;48.00;;;;;;5066266;28;19974;-76
2022/03/08 14:03:20;;;;;;;;;;;8.30;48.20;;;;;;5064663;28;20002;-75
2022/03/08 14:05:56;;;;;;;;;;;8.50;48.10;;;;;;5058371;28;19938;-78
2022/03/08 14:08:24;;;;;;;;;;;8.70;47.90;;;;;;5062915;28;19928;-77
2022/03/08 14:10:54;;;;;;;;;;;8.70;47.20;;;;;;5058686;28;19971;-76
2022/03/08 14:13:22;;;;;;;;;;;8.70;47.20;;;;;;5059844;28;20023;-76
2022/03/08 14:15:54;;;;;;;;;;;8.70;47.40;;;;;;5062554;28;19939;-77
2022/03/08 14:18:22;;;;;;;;;;;8.70;47.70;;;;;;5078727;28;19929;-77
2022/03/08 14:20:49;;;;;;;;;;;8.60;47.20;;;;;;5062069;28;19948;-74
2022/03/08 14:23:16;;;;;;;;;;;8.60;47.40;;;;;;5064904;28;19925;-76
2022/03/08 14:25:58;;;;;;;;;;;8.60;46.60;;;;;;5068399;28;19998;-77
2022/03/08 14:28:44;;;;;;;;;;;8.40;46.60;;;;;;5057088;28;19928;-77
2022/03/08 14:31:15;;;;;;;;;;;8.50;47.50;;;;;;5065655;28;19974;-75
2022/03/08 14:33:52;;;;;;;;;;;8.40;47.40;;;;;;5067416;28;19925;-77